Time;durP1;ratioP1;P1;durP2;ratioP2;P2;SDS_P1;SDS_P2;PMS_P1;PMS_P2;Temp;Humidity;BMP_temperature;BMP_pressure;BME280_temperature;BME280_humidity;BME280_pressure;Samples;Min_cycle;Max_cycle;Signal;HPM_P1;HPM_P2
2023/02/26 00:00:14;;;;;;;4.38;1.40;;;;;;;-143.48;58.20;118439.88;5115018;28;20052;-68
2023/02/26 00:02:45;;;;;;;5.28;1.73;;;;;;;-143.48;59.06;118439.88;5114905;28;20031;-68
2023/02/26 00:05:11;;;;;;;5.82;1.13;;;;;;;-143.48;57.83;118439.88;5114626;28;20067;-68
2023/02/26 00:07:37;;;;;;;4.70;1.08;;;;;;;-143.48;56.78;118439.88;5096661;28;20073;-69
2023/02/26 00:10:05;;;;;;;6.45;1.13;;;;;;;-143.48;55.76;118439.88;5114602;28;20030;-68
2023/02/26 00:12:31;;;;;;;4.00;0.73;;;;;;;-143.48;55.88;118439.88;5096474;28;20016;-68
2023/02/26 00:14:56;;;;;;;6.82;1.35;;;;;;;-143.48;55.63;118439.88;5114731;28;20447;-68
2023/02/26 00:17:34;;;;;;;10.98;1.42;;;;;;;-143.48;55.71;118439.88;5114790;28;20027;-68
2023/02/26 00:20:00;;;;;;;8.75;1.30;;;;;;;-143.48;56.08;118439.88;5114501;28;20054;-68
2023/02/26 00:22:26;;;;;;;10.13;1.20;;;;;;;-143.48;55.13;118439.88;5114471;28;20073;-68
2023/02/26 00:24:51;;;;;;;7.97;1.10;;;;;;;-143.48;55.29;118439.88;5114858;28;20359;-68
2023/02/26 00:27:17;;;;;;;7.32;1.10;;;;;;;-143.48;54.47;118439.88;5114637;28;20429;-68
2023/02/26 00:29:43;;;;;;;7.55;0.80;;;;;;;-143.48;54.73;118439.88;5114228;28;20038;-69
2023/02/26 00:32:09;;;;;;;12.18;1.33;;;;;;;-143.48;55.10;118439.88;5114313;28;20106;-68
2023/02/26 00:34:35;;;;;;;8.45;0.93;;;;;;;-143.48;55.36;118439.88;5114212;28;20490;-68
2023/02/26 00:37:11;;;;;;;3.58;0.98;;;;;;;-143.48;55.72;118439.88;5114031;28;20019;-68
2023/02/26 00:39:45;;;;;;;8.18;1.05;;;;;;;-143.48;55.86;118439.88;5114505;28;20028;-68
2023/02/26 00:42:12;;;;;;;7.18;1.05;;;;;;;-143.48;54.60;118439.88;5114226;28;20030;-69
2023/02/26 00:44:38;;;;;;;10.18;1.20;;;;;;;-143.48;54.15;118439.88;5096038;28;20110;-69
2023/02/26 00:47:31;;;;;;;8.80;1.40;;;;;;;-143.48;55.49;118439.88;5112850;28;20115;-69
2023/02/26 00:50:14;;;;;;;10.00;1.60;;;;;;;-143.48;54.62;118439.88;5095940;28;20145;-67
2023/02/26 00:52:58;;;;;;;;;;;;;;;-143.48;54.32;118439.88;5114723;28;20024;-68
2023/02/26 00:55:24;;;;;;;6.60;1.42;;;;;;;-143.48;54.27;118439.88;5114085;28;19908;-68
2023/02/26 00:57:49;;;;;;;4.80;1.00;;;;;;;-143.48;54.49;118439.88;5114213;28;20028;-68
2023/02/26 01:00:15;;;;;;;8.30;1.15;;;;;;;-143.48;54.15;118439.88;5114213;28;20052;-69
2023/02/26 01:02:41;;;;;;;5.22;1.00;;;;;;;-143.48;54.67;118439.88;5114000;28;20046;-67
2023/02/26 01:05:08;;;;;;;5.90;1.30;;;;;;;-143.48;54.49;118439.88;5113948;28;20407;-68
2023/02/26 01:07:58;;;;;;;8.15;1.45;;;;;;;-143.48;54.45;118439.88;5112819;28;20055;-67
2023/02/26 01:10:24;;;;;;;9.98;1.77;;;;;;;-143.48;54.91;118439.88;5113958;28;20372;-68
2023/02/26 01:12:49;;;;;;;8.05;1.13;;;;;;;-143.48;54.66;118439.88;5113850;28;20031;-67
2023/02/26 01:15:15;;;;;;;9.95;1.20;;;;;;;-143.48;54.91;118439.88;5095747;28;20015;-67
2023/02/26 01:18:12;;;;;;;11.75;1.33;;;;;;;-143.48;54.31;118439.88;5114092;28;20055;-67
2023/02/26 01:20:46;;;;;;;6.05;1.20;;;;;;;-143.48;54.47;118439.88;5061072;28;20032;-67
2023/02/26 01:23:15;;;;;;;11.95;1.30;;;;;;;-143.48;53.88;118439.88;5114051;28;20024;-68
2023/02/26 01:25:53;;;;;;;4.53;1.08;;;;;;;-143.48;54.44;118439.88;5095969;28;20071;-68
2023/02/26 01:28:19;;;;;;;5.10;0.93;;;;;;;-143.48;53.77;118439.88;5095406;28;20031;-68
2023/02/26 01:30:45;;;;;;;5.35;0.90;;;;;;;-143.48;53.67;118439.88;5113930;28;20020;-68
2023/02/26 01:33:11;;;;;;;3.92;0.82;;;;;;;-143.48;54.63;118439.88;5095427;28;20463;-68
2023/02/26 01:35:49;;;;;;;7.30;1.50;;;;;;;-143.48;54.23;118439.88;5113797;28;20027;-68
2023/02/26 01:38:43;;;;;;;7.85;1.38;;;;;;;-143.48;54.11;118439.88;5113686;28;20038;-68
2023/02/26 01:41:09;;;;;;;8.52;1.15;;;;;;;-143.48;54.20;118439.88;5113755;28;20019;-68
2023/02/26 01:43:50;;;;;;;4.90;1.33;;;;;;;-143.48;54.51;118439.88;5097771;28;20035;-68
2023/02/26 01:46:20;;;;;;;4.32;1.00;;;;;;;-143.48;54.60;118439.88;5098932;28;20081;-68
2023/02/26 01:48:46;;;;;;;5.53;1.15;;;;;;;-143.48;54.15;118439.88;5117203;28;20046;-67
2023/02/26 01:51:11;;;;;;;3.33;0.93;;;;;;;-143.48;54.06;118439.88;5117123;28;20102;-67
2023/02/26 01:53:37;;;;;;;4.82;1.17;;;;;;;-143.48;54.53;118439.88;5117577;28;20023;-67
2023/02/26 01:56:10;;;;;;;7.18;1.58;;;;;;;-143.48;53.92;118439.88;5099203;28;20100;-69
2023/02/26 01:58:36;;;;;;;4.57;0.75;;;;;;;-143.48;53.67;118439.88;5116174;28;20547;-68
2023/02/26 02:01:03;;;;;;;4.82;1.30;;;;;;;-143.48;53.91;118439.88;5098907;28;20012;-67
2023/02/26 02:03:32;;;;;;;7.28;1.23;;;;;;;-143.48;53.12;118439.88;5117397;28;20028;-67
2023/02/26 02:06:04;;;;;;;6.93;1.08;;;;;;;-143.48;53.08;118439.88;5116943;28;20094;-67
2023/02/26 02:08:34;;;;;;;13.07;1.40;;;;;;;-143.48;53.60;118439.88;5117181;28;20102;-67
2023/02/26 02:11:01;;;;;;;4.00;0.82;;;;;;;-143.48;53.95;118439.88;5117046;28;20023;-68
2023/02/26 02:13:58;;;;;;;7.40;1.40;;;;;;;-143.48;53.67;118439.88;5115637;28;20027;-67
2023/02/26 02:16:57;;;;;;;6.95;0.95;;;;;;;-143.48;53.56;118439.88;5070932;28;20031;-67
2023/02/26 02:19:50;;;;;;;7.72;1.30;;;;;;;-143.48;53.25;118439.88;5116894;28;20456;-67
2023/02/26 02:22:34;;;;;;;8.35;1.25;;;;;;;-143.48;52.69;118439.88;5116591;28;20023;-68
2023/02/26 02:25:23;;;;;;;8.82;1.02;;;;;;;-143.48;52.80;118439.88;5116793;28;20027;-67
2023/02/26 02:28:19;;;;;;;5.60;0.98;;;;;;;-143.48;52.61;118439.88;5098268;28;20024;-68
2023/02/26 02:31:05;;;;;;;4.80;1.15;;;;;;;-143.48;52.80;118439.88;5116629;28;20034;-68
2023/02/26 02:33:36;;;;;;;6.63;0.80;;;;;;;-143.48;52.30;118439.88;5116504;28;20416;-67
2023/02/26 02:36:14;;;;;;;2.55;0.75;;;;;;;-143.48;51.96;118439.88;5116616;28;20047;-67
2023/02/26 02:38:51;;;;;;;5.07;1.25;;;;;;;-143.48;51.85;118439.88;5115400;28;20081;-68
2023/02/26 02:41:24;;;;;;;5.68;1.20;;;;;;;-143.48;51.86;118439.88;5116243;28;20505;-69
2023/02/26 02:43:51;;;;;;;5.07;0.77;;;;;;;-143.48;51.85;118439.88;5116276;28;20024;-67
2023/02/26 02:46:25;;;;;;;5.80;1.00;;;;;;;-143.48;51.62;118439.88;5116313;28;20024;-67
2023/02/26 02:49:11;;;;;;;3.67;0.75;;;;;;;-143.48;52.48;118439.88;5116321;28;20106;-67
2023/02/26 02:51:41;;;;;;;2.72;0.82;;;;;;;-143.48;52.26;118439.88;5101736;28;20055;-67
2023/02/26 02:54:19;;;;;;;5.47;0.90;;;;;;;-143.48;52.37;118439.88;5098295;28;20106;-67
2023/02/26 02:56:50;;;;;;;4.57;1.25;;;;;;;-143.48;52.53;118439.88;5116342;28;20031;-67
2023/02/26 02:59:32;;;;;;;5.97;1.20;;;;;;;-143.48;51.71;118439.88;5098053;28;20386;-67
2023/02/26 03:02:12;;;;;;;3.72;0.75;;;;;;;-143.48;51.55;118439.88;5116943;28;20036;-67
2023/02/26 03:04:40;;;;;;;5.18;0.82;;;;;;;-143.48;51.85;118439.88;5098157;28;20080;-68
2023/02/26 03:07:05;;;;;;;4.55;1.17;;;;;;;-143.48;52.17;118439.88;5116435;28;20035;-69
2023/02/26 03:09:31;;;;;;;3.80;0.80;;;;;;;-143.48;51.80;118439.88;5116312;28;20375;-68
2023/02/26 03:11:57;;;;;;;4.13;0.70;;;;;;;-143.48;51.69;118439.88;5116178;28;20035;-69
2023/02/26 03:14:22;;;;;;;4.82;1.02;;;;;;;-143.48;52.23;118439.88;5115958;28;20027;-68
2023/02/26 03:17:06;;;;;;;6.15;0.90;;;;;;;-143.48;51.58;118439.88;5115715;28;20464;-68
2023/02/26 03:19:52;;;;;;;7.20;1.00;;;;;;;-143.48;51.50;118439.88;5115616;28;20027;-68
2023/02/26 03:22:21;;;;;;;7.43;1.00;;;;;;;-143.48;51.79;118439.88;5115540;28;20019;-68
2023/02/26 03:24:54;;;;;;;5.80;1.00;;;;;;;-143.48;52.29;118439.88;5115491;28;20035;-68
2023/02/26 03:27:57;;;;;;;2.75;0.90;;;;;;;-143.48;52.04;118439.88;5115490;28;20016;-68
2023/02/26 03:30:47;;;;;;;4.30;1.02;;;;;;;-143.48;52.34;118439.88;5115522;28;20031;-68
2023/02/26 03:33:58;;;;;;;3.60;0.70;;;;;;;-143.48;52.83;118439.88;5115116;28;20371;-68
2023/02/26 03:36:36;;;;;;;8.60;1.25;;;;;;;-143.48;52.18;118439.88;5114199;28;20020;-68
2023/02/26 03:39:21;;;;;;;1.67;0.63;;;;;;;-143.48;52.99;118439.88;5115380;28;20020;-68
2023/02/26 03:41:55;;;;;;;6.75;1.13;;;;;;;-143.48;52.22;118439.88;5114008;28;20023;-68
2023/02/26 03:44:32;;;;;;;7.53;1.15;;;;;;;-143.48;53.01;118439.88;5115356;28;20031;-68
2023/02/26 03:47:04;;;;;;;3.85;0.57;;;;;;;-143.48;53.44;118439.88;5115028;28;20053;-68
2023/02/26 03:49:35;;;;;;;6.07;1.07;;;;;;;-143.48;53.17;118439.88;5096832;28;20438;-68
2023/02/26 03:52:03;;;;;;;7.03;1.13;;;;;;;-143.48;53.20;118439.88;5115483;28;20130;-68
2023/02/26 03:54:40;;;;;;;1.35;0.85;;;;;;;-143.48;52.09;118439.88;5113682;28;20462;-68
2023/02/26 03:57:05;;;;;;;3.05;0.73;;;;;;;-143.48;52.25;118439.88;5115065;28;20020;-68
2023/02/26 03:59:32;;;;;;;5.88;0.75;;;;;;;-143.48;53.07;118439.88;5114895;28;20022;-68
2023/02/26 04:02:00;;;;;;;2.90;0.63;;;;;;;-143.48;53.53;118439.88;5115023;28;20027;-67
2023/02/26 04:04:46;;;;;;;2.15;0.70;;;;;;;-143.48;52.58;118439.88;5096818;28;20019;-68
2023/02/26 04:07:14;;;;;;;4.30;0.82;;;;;;;-143.48;53.46;118439.88;5114452;28;20047;-68
2023/02/26 04:09:41;;;;;;;5.95;0.90;;;;;;;-143.48;53.42;118439.88;5114590;28;20027;-67
2023/02/26 04:12:06;;;;;;;8.85;1.20;;;;;;;-143.48;53.09;118439.88;5096494;28;20114;-68
2023/02/26 04:14:32;;;;;;;6.20;0.98;;;;;;;-143.48;52.63;118439.88;5114626;28;20492;-67
2023/02/26 04:16:57;;;;;;;3.03;0.60;;;;;;;-143.48;52.71;118439.88;5096419;28;20374;-68
2023/02/26 04:19:22;;;;;;;5.43;0.70;;;;;;;-143.48;52.66;118439.88;5114356;28;20020;-67
2023/02/26 04:21:47;;;;;;;4.55;0.90;;;;;;;-143.48;52.66;118439.88;5096071;28;20042;-68
2023/02/26 04:24:13;;;;;;;4.72;0.60;;;;;;;-143.48;54.19;118439.88;5096248;28;20454;-67
2023/02/26 04:26:38;;;;;;;4.40;0.70;;;;;;;-143.48;53.64;118439.88;5096193;28;20080;-67
2023/02/26 04:29:03;;;;;;;2.60;0.70;;;;;;;-143.48;53.64;118439.88;5114556;28;20148;-67
2023/02/26 04:31:29;;;;;;;3.67;0.80;;;;;;;-143.48;53.86;118439.88;5096195;28;20058;-67
2023/02/26 04:33:54;;;;;;;6.13;1.10;;;;;;;-143.48;53.90;118439.88;5114383;28;20450;-67
2023/02/26 04:36:19;;;;;;;7.22;1.20;;;;;;;-143.48;53.34;118439.88;5096279;28;20030;-68
2023/02/26 04:38:45;;;;;;;3.72;0.68;;;;;;;-143.48;55.25;118439.88;5095931;28;20519;-68
2023/02/26 04:41:10;;;;;;;6.10;0.82;;;;;;;-143.48;54.12;118439.88;5114187;28;20401;-68
2023/02/26 04:43:36;;;;;;;7.13;1.25;;;;;;;-143.48;55.63;118439.88;5095822;28;20032;-68
2023/02/26 04:46:02;;;;;;;3.08;0.63;;;;;;;-143.48;55.07;118439.88;5095772;28;20483;-67
2023/02/26 04:48:27;;;;;;;2.78;0.73;;;;;;;-143.48;53.54;118439.88;5114299;28;20085;-68
2023/02/26 04:50:53;;;;;;;4.97;0.60;;;;;;;-143.48;54.39;118439.88;5114174;28;20019;-67
2023/02/26 04:53:18;;;;;;;7.00;1.02;;;;;;;-143.48;54.01;118439.88;5114209;28;20080;-68
2023/02/26 04:55:47;;;;;;;3.63;0.82;;;;;;;-143.48;55.24;118439.88;5114261;28;20054;-67
2023/02/26 04:58:12;;;;;;;2.70;0.80;;;;;;;-143.48;54.51;118439.88;5095850;28;20119;-67
2023/02/26 05:00:37;;;;;;;1.35;0.40;;;;;;;-143.48;54.88;118439.88;5114887;28;20058;-68
2023/02/26 05:03:03;;;;;;;5.25;0.80;;;;;;;-143.48;54.71;118439.88;5095989;28;20473;-68
2023/02/26 05:05:28;;;;;;;6.05;1.10;;;;;;;-143.48;56.70;118439.88;5114032;28;20101;-68
2023/02/26 05:07:55;;;;;;;5.10;0.80;;;;;;;-143.48;56.14;118439.88;5114182;28;20466;-68
2023/02/26 05:10:20;;;;;;;4.10;0.95;;;;;;;-143.48;56.09;118439.88;5095805;28;20024;-68
2023/02/26 05:12:46;;;;;;;5.07;1.10;;;;;;;-143.48;56.03;118439.88;5113838;28;20016;-68
2023/02/26 05:15:11;;;;;;;7.35;0.80;;;;;;;-143.48;55.57;118439.88;5113741;28;20023;-68
2023/02/26 05:17:37;;;;;;;3.78;0.68;;;;;;;-143.48;56.74;118439.88;5114806;28;20047;-68
2023/02/26 05:20:03;;;;;;;3.28;1.00;;;;;;;-143.48;55.98;118439.88;5118279;28;20015;-68
2023/02/26 05:22:28;;;;;;;3.95;0.80;;;;;;;-143.48;55.87;118439.88;5099786;28;20070;-68
2023/02/26 05:24:53;;;;;;;5.57;1.02;;;;;;;-143.48;55.62;118439.88;5118135;28;20428;-68
2023/02/26 05:27:18;;;;;;;5.97;0.80;;;;;;;-143.48;56.30;118439.88;5117906;28;20019;-68
2023/02/26 05:29:44;;;;;;;5.53;0.80;;;;;;;-143.48;58.27;118439.88;5117834;28;20106;-68
2023/02/26 05:32:10;;;;;;;7.53;1.00;;;;;;;-143.48;56.66;118439.88;5117942;28;20427;-68
2023/02/26 05:34:35;;;;;;;4.68;1.10;;;;;;;-143.48;56.46;118439.88;5117878;28;20030;-69
2023/02/26 05:37:01;;;;;;;2.92;1.05;;;;;;;-143.48;57.29;118439.88;5117726;28;20019;-68
2023/02/26 05:39:26;;;;;;;6.45;0.90;;;;;;;-143.48;58.66;118439.88;5117417;28;20044;-67
2023/02/26 05:41:54;;;;;;;6.82;1.00;;;;;;;-143.48;59.20;118439.88;5099440;28;20031;-68
2023/02/26 05:44:19;;;;;;;3.13;1.00;;;;;;;-143.48;60.48;118439.88;5099356;28;20042;-67
2023/02/26 05:46:45;;;;;;;2.90;0.90;;;;;;;-143.48;59.44;118439.88;5117742;28;20027;-67
2023/02/26 05:49:10;;;;;;;3.20;1.00;;;;;;;-143.48;58.81;118439.88;5117384;28;20015;-67
2023/02/26 05:51:35;;;;;;;2.53;0.85;;;;;;;-143.48;60.57;118439.88;5099156;28;20383;-67
2023/02/26 05:54:01;;;;;;;6.35;1.27;;;;;;;-143.48;59.90;118439.88;5117430;28;20027;-67
2023/02/26 05:56:26;;;;;;;6.10;1.13;;;;;;;-143.48;61.56;118439.88;5117614;28;20027;-68
2023/02/26 05:58:51;;;;;;;2.25;0.93;;;;;;;-143.48;60.32;118439.88;5099115;28;20028;-67
2023/02/26 06:01:16;;;;;;;4.25;1.17;;;;;;;-143.48;61.25;118439.88;5117885;28;20363;-68
2023/02/26 06:03:43;;;;;;;5.13;1.27;;;;;;;-143.48;60.49;118439.88;5117938;28;20035;-67
2023/02/26 06:06:14;;;;;;;10.43;1.20;;;;;;;-143.48;60.03;118439.88;5116294;28;20131;-68
2023/02/26 06:08:40;;;;;;;7.47;1.00;;;;;;;-143.48;61.40;118439.88;5099930;28;20077;-67
2023/02/26 06:11:05;;;;;;;6.93;1.23;;;;;;;-143.48;59.52;118439.88;5117752;28;20015;-68
2023/02/26 06:13:30;;;;;;;14.05;1.38;;;;;;;-143.48;58.45;118439.88;5099740;28;20032;-67
2023/02/26 06:15:56;;;;;;;3.17;1.20;;;;;;;-143.48;58.66;118439.88;5118787;28;20030;-68
2023/02/26 06:18:21;;;;;;;4.97;1.20;;;;;;;-143.48;59.38;118439.88;5104046;28;20122;-68
2023/02/26 06:20:46;;;;;;;2.58;0.85;;;;;;;-143.48;61.16;118439.88;5105962;28;20026;-68
2023/02/26 06:23:13;;;;;;;4.63;0.70;;;;;;;-143.48;60.74;118439.88;5124210;28;20462;-67
2023/02/26 06:25:39;;;;;;;3.08;0.95;;;;;;;-143.48;61.45;118439.88;5106061;28;20079;-67
2023/02/26 06:28:05;;;;;;;4.80;1.85;;;;;;;-143.48;59.91;118439.88;5123303;28;20043;-67
2023/02/26 06:30:30;;;;;;;16.20;3.15;;;;;;;-143.48;60.52;118439.88;5106006;28;20083;-67
2023/02/26 06:32:56;;;;;;;9.60;2.65;;;;;;;-143.48;59.67;118439.88;5123155;28;20042;-67
2023/02/26 06:35:21;;;;;;;11.65;3.15;;;;;;;-143.48;59.97;118439.88;5123685;28;20031;-67
2023/02/26 06:37:46;;;;;;;9.27;3.08;;;;;;;-143.48;60.85;118439.88;5123775;28;20083;-71
2023/02/26 06:40:12;;;;;;;7.85;2.65;;;;;;;-143.48;61.52;118439.88;5132850;28;20071;-69
2023/02/26 06:42:37;;;;;;;10.05;2.53;;;;;;;-143.48;62.71;118439.88;5113869;28;20027;-67
2023/02/26 06:45:03;;;;;;;8.15;2.00;;;;;;;-143.48;61.56;118439.88;5132923;28;20031;-68
2023/02/26 06:47:28;;;;;;;8.25;2.58;;;;;;;-143.48;60.94;118439.88;5132412;28;20024;-68
2023/02/26 06:49:53;;;;;;;9.02;1.92;;;;;;;-143.48;60.99;118439.88;5113794;28;20019;-69
2023/02/26 06:52:19;;;;;;;8.10;1.45;;;;;;;-143.48;61.12;118439.88;5132955;28;20031;-69
2023/02/26 06:54:44;;;;;;;5.70;1.40;;;;;;;-143.48;59.91;118439.88;5130719;28;20020;-68
2023/02/26 06:57:10;;;;;;;5.10;1.60;;;;;;;-143.48;59.30;118439.88;5104422;28;20050;-68
2023/02/26 06:59:35;;;;;;;6.03;1.58;;;;;;;-143.48;59.68;118439.88;5122286;28;20000;-68
2023/02/26 07:02:00;;;;;;;6.82;1.33;;;;;;;-143.48;58.53;118439.88;5120677;28;20463;-68
2023/02/26 07:04:26;;;;;;;4.45;1.55;;;;;;;-143.48;58.09;118439.88;5119086;28;20034;-68
2023/02/26 07:06:51;;;;;;;5.32;1.00;;;;;;;-143.48;58.13;118439.88;5120625;28;20055;-69
2023/02/26 07:09:18;;;;;;;7.65;1.95;;;;;;;-143.48;58.77;118439.88;5101576;28;20443;-69
2023/02/26 07:11:44;;;;;;;7.15;2.33;;;;;;;-143.48;58.79;118439.88;5118007;28;20042;-68
2023/02/26 07:14:09;;;;;;;7.63;1.83;;;;;;;-143.48;57.86;118439.88;5117596;28;20490;-68
2023/02/26 07:16:34;;;;;;;4.70;1.42;;;;;;;-143.48;59.42;118439.88;5117801;28;20034;-68
2023/02/26 07:18:59;;;;;;;7.80;1.50;;;;;;;-143.48;59.97;118439.88;5116929;28;20433;-68
2023/02/26 07:21:25;;;;;;;9.77;1.60;;;;;;;-143.48;60.97;118439.88;5116853;28;20027;-68
2023/02/26 07:23:50;;;;;;;7.80;1.60;;;;;;;-143.48;60.70;118439.88;5097909;28;20107;-68
2023/02/26 07:26:16;;;;;;;5.75;1.70;;;;;;;-143.48;59.91;118439.88;5116398;28;20028;-68
2023/02/26 07:28:41;;;;;;;5.10;1.40;;;;;;;-143.48;59.85;118439.88;5097724;28;20120;-68
2023/02/26 07:31:07;;;;;;;6.60;1.70;;;;;;;-143.48;59.09;118439.88;5116568;28;20443;-68
2023/02/26 07:33:33;;;;;;;6.43;1.60;;;;;;;-143.48;58.37;118439.88;5097565;28;20019;-68
2023/02/26 07:35:59;;;;;;;5.78;1.40;;;;;;;-143.48;58.50;118439.88;5115542;28;20538;-68
2023/02/26 07:38:25;;;;;;;5.88;1.50;;;;;;;-143.48;54.59;118439.88;5115699;28;20024;-68
2023/02/26 07:40:53;;;;;;;4.43;1.55;;;;;;;-143.48;52.47;118439.88;5116666;28;20123;-68
2023/02/26 07:43:18;;;;;;;8.57;1.73;;;;;;;-143.48;49.09;118439.88;5115353;28;20030;-68
2023/02/26 07:45:43;;;;;;;4.80;1.50;;;;;;;-143.48;47.80;118439.88;5115649;28;20032;-68
2023/02/26 07:48:08;;;;;;;6.32;1.40;;;;;;;-143.48;45.94;118439.88;5123522;28;20019;-69
2023/02/26 07:50:34;;;;;;;6.30;1.60;;;;;;;-143.48;45.28;118439.88;5134486;28;20054;-68
2023/02/26 07:52:59;;;;;;;7.97;1.45;;;;;;;-143.48;43.31;118439.88;5132468;28;20594;-67
2023/02/26 07:55:26;;;;;;;5.70;1.30;;;;;;;-143.48;44.50;118439.88;5115299;28;20043;-68
2023/02/26 07:57:51;;;;;;;6.70;1.63;;;;;;;-143.48;44.39;118439.88;5096768;28;20038;-69
2023/02/26 08:00:17;;;;;;;6.65;1.23;;;;;;;-143.48;41.95;118439.88;5115337;28;20028;-68
2023/02/26 08:02:42;;;;;;;3.88;1.30;;;;;;;-143.48;40.79;118439.88;5122821;28;20092;-69
2023/02/26 08:05:08;;;;;;;5.07;1.38;;;;;;;-143.48;40.45;118439.88;5114771;28;20097;-67
2023/02/26 08:07:33;;;;;;;5.10;1.63;;;;;;;-143.48;40.02;118439.88;5116117;28;20062;-67
2023/02/26 08:09:58;;;;;;;8.00;1.40;;;;;;;-143.48;39.01;118439.88;5115910;28;20467;-69
2023/02/26 08:12:24;;;;;;;6.68;1.35;;;;;;;-143.48;39.12;118439.88;5114990;28;20103;-69
2023/02/26 08:14:49;;;;;;;6.65;1.30;;;;;;;-143.48;37.84;118439.88;5114952;28;20027;-68
2023/02/26 08:17:14;;;;;;;4.10;1.35;;;;;;;-143.48;37.65;118439.88;5096420;28;20088;-68
2023/02/26 08:19:40;;;;;;;7.25;1.30;;;;;;;-143.48;37.02;118439.88;5114692;28;20019;-68
2023/02/26 08:22:05;;;;;;;7.65;1.60;;;;;;;-143.48;36.83;118439.88;5115302;28;20023;-68
2023/02/26 08:24:30;;;;;;;9.45;1.65;;;;;;;-143.48;35.12;118439.88;5116357;28;20034;-69
2023/02/26 08:26:56;;;;;;;4.55;1.40;;;;;;;-143.48;34.30;118439.88;5097409;28;20023;-68
2023/02/26 08:29:21;;;;;;;6.00;1.48;;;;;;;-143.48;35.91;118439.88;5114816;28;20034;-68
2023/02/26 08:31:47;;;;;;;3.75;1.40;;;;;;;-143.48;35.22;118439.88;5097531;28;20080;-67
2023/02/26 08:34:12;;;;;;;5.47;1.48;;;;;;;-143.48;33.75;118439.88;5114724;28;20062;-68
2023/02/26 08:36:38;;;;;;;5.78;1.27;;;;;;;-143.48;35.24;118439.88;5119309;28;20031;-67
2023/02/26 08:39:03;;;;;;;6.50;1.50;;;;;;;-143.48;34.99;118439.88;5114489;28;20581;-67
2023/02/26 08:41:31;;;;;;;5.05;1.90;;;;;;;-143.48;34.69;118439.88;5115776;28;20020;-68
2023/02/26 08:43:57;;;;;;;6.50;1.45;;;;;;;-143.48;35.04;118439.88;5116510;28;20028;-68
2023/02/26 08:46:22;;;;;;;7.32;1.63;;;;;;;-143.48;34.04;118439.88;5115694;28;20028;-68
2023/02/26 08:48:48;;;;;;;3.67;1.20;;;;;;;-143.48;33.06;118439.88;5115468;28;20028;-68
2023/02/26 08:51:13;;;;;;;7.97;1.38;;;;;;;-143.48;33.04;118439.88;5116401;28;20156;-67
2023/02/26 08:53:39;;;;;;;5.53;1.50;;;;;;;-143.48;32.87;118439.88;5103521;28;20031;-68
2023/02/26 08:56:05;;;;;;;4.55;1.40;;;;;;;-143.48;32.88;118439.88;5103074;28;20035;-68
2023/02/26 08:58:30;;;;;;;5.18;1.40;;;;;;;-143.48;33.52;118439.88;5124854;28;20405;-68
2023/02/26 09:00:55;;;;;;;5.15;1.17;;;;;;;-143.48;33.68;118439.88;5106516;28;20106;-68
2023/02/26 09:03:21;;;;;;;2.78;1.00;;;;;;;-143.48;33.95;118439.88;5122787;28;20027;-68
2023/02/26 09:05:46;;;;;;;5.43;1.30;;;;;;;-143.48;33.00;118439.88;5102741;28;20047;-68
2023/02/26 09:08:14;;;;;;;6.68;1.23;;;;;;;-143.48;33.27;118439.88;5121087;28;20107;-68
2023/02/26 09:10:39;;;;;;;2.40;1.02;;;;;;;-143.48;31.90;118439.88;5119633;28;20024;-68
2023/02/26 09:13:04;;;;;;;2.58;1.23;;;;;;;-143.48;31.05;118439.88;5103037;28;20030;-68
2023/02/26 09:15:30;;;;;;;2.47;0.90;;;;;;;-143.48;30.90;118439.88;5120916;28;20151;-68
2023/02/26 09:17:55;;;;;;;4.55;1.30;;;;;;;-143.48;31.75;118439.88;5122003;28;20054;-68
2023/02/26 09:20:21;;;;;;;3.65;1.10;;;;;;;-143.48;31.31;118439.88;5103929;28;20022;-68
2023/02/26 09:22:46;;;;;;;3.75;1.25;;;;;;;-143.48;30.57;118439.88;5127454;28;20024;-68
2023/02/26 09:25:12;;;;;;;3.80;1.35;;;;;;;-143.48;31.44;118439.88;5122705;28;20068;-68
2023/02/26 09:27:37;;;;;;;3.72;1.17;;;;;;;-143.48;31.15;118439.88;5119667;28;20067;-68
2023/02/26 09:30:04;;;;;;;2.42;0.90;;;;;;;-143.48;31.72;118439.88;5120855;28;20054;-69
2023/02/26 09:32:29;;;;;;;6.35;1.50;;;;;;;-143.48;30.51;118439.88;5123981;28;20424;-67
2023/02/26 09:34:54;;;;;;;4.32;1.20;;;;;;;-143.48;29.89;118439.88;5102456;28;20035;-67
2023/02/26 09:37:20;;;;;;;3.50;1.23;;;;;;;-143.48;30.04;118439.88;5102306;28;20023;-68
2023/02/26 09:39:45;;;;;;;5.25;1.40;;;;;;;-143.48;30.06;118439.88;5102431;28;20084;-67
2023/02/26 09:42:36;;;;;;;6.68;1.40;;;;;;;-143.48;29.97;118439.88;5120680;28;20028;-68
2023/02/26 09:45:02;;;;;;;5.20;1.00;;;;;;;-143.48;29.82;118439.88;5119588;28;20454;-68
2023/02/26 09:47:38;;;;;;;2.42;0.90;;;;;;;-143.48;30.68;118439.88;5121072;28;20028;-69
2023/02/26 09:50:08;;;;;;;4.85;1.30;;;;;;;-143.48;29.27;118439.88;5119009;28;20055;-67
2023/02/26 09:52:51;;;;;;;4.32;1.30;;;;;;;-143.48;29.79;118439.88;5120590;28;20032;-68
2023/02/26 09:55:35;;;;;;;;;;;;;;;-143.48;28.62;118439.88;5121570;28;20027;-67
2023/02/26 09:58:04;;;;;;;3.10;1.00;;;;;;;-143.48;31.71;118439.88;5121428;28;20278;-69
2023/02/26 10:00:37;;;;;;;6.07;1.30;;;;;;;-143.48;29.20;118439.88;5106295;28;20472;-67
2023/02/26 10:03:41;;;;;;;4.10;1.20;;;;;;;-143.48;30.16;118439.88;5118694;28;20071;-68
2023/02/26 10:06:33;;;;;;;4.32;1.27;;;;;;;-143.48;29.14;118439.88;5098682;28;20051;-68
2023/02/26 10:09:20;;;;;;;6.07;1.30;;;;;;;-143.48;32.63;118439.88;5117306;28;20032;-68
2023/02/26 10:11:57;;;;;;;3.78;0.90;;;;;;;-143.48;31.34;118439.88;5099185;28;20343;-68
2023/02/26 10:14:38;;;;;;;3.03;1.00;;;;;;;-143.48;29.00;118439.88;5117060;28;20032;-69
2023/02/26 10:17:19;;;;;;;4.82;1.65;;;;;;;-143.48;30.36;118439.88;5121526;28;20091;-68
2023/02/26 10:19:50;;;;;;;4.13;1.10;;;;;;;-143.48;29.15;118439.88;5098376;28;20028;-67
2023/02/26 10:22:23;;;;;;;3.25;1.05;;;;;;;-143.48;28.23;118439.88;5098952;28;20024;-68
2023/02/26 10:24:54;;;;;;;4.85;1.20;;;;;;;-143.48;28.39;118439.88;5118325;28;20043;-68
2023/02/26 10:27:38;;;;;;;10.45;1.58;;;;;;;-143.48;28.06;118439.88;5116776;28;20072;-69
2023/02/26 10:30:20;;;;;;;5.93;1.10;;;;;;;-143.48;29.49;118439.88;5098494;28;20027;-68
2023/02/26 10:32:56;;;;;;;4.85;1.30;;;;;;;-143.48;28.19;118439.88;5117110;28;20064;-68
2023/02/26 10:35:26;;;;;;;4.75;1.25;;;;;;;-143.48;28.06;118439.88;5116645;28;20024;-68
2023/02/26 10:37:58;;;;;;;3.88;1.02;;;;;;;-143.48;29.28;118439.88;5117204;28;20019;-69
2023/02/26 10:40:36;;;;;;;4.38;1.10;;;;;;;-143.48;28.22;118439.88;5098324;28;20019;-68
2023/02/26 10:43:17;;;;;;;3.95;1.40;;;;;;;-143.48;28.68;118439.88;5116542;28;20082;-69
2023/02/26 10:45:57;;;;;;;4.05;0.93;;;;;;;-143.48;29.17;118439.88;5098399;28;20363;-66
2023/02/26 10:48:38;;;;;;;3.80;0.98;;;;;;;-143.48;31.98;118439.88;5116720;28;20494;-67
2023/02/26 10:51:16;;;;;;;2.47;0.65;;;;;;;-143.48;30.94;118439.88;5116452;28;20027;-67
2023/02/26 10:53:48;;;;;;;2.00;0.68;;;;;;;-143.48;30.43;118439.88;5104561;28;20023;-68
2023/02/26 10:56:19;;;;;;;6.72;1.27;;;;;;;-143.48;34.04;118439.88;5115087;28;20030;-68
2023/02/26 10:58:44;;;;;;;2.83;0.88;;;;;;;-143.48;35.44;118439.88;5126854;28;20031;-68
2023/02/26 11:01:19;;;;;;;2.78;0.90;;;;;;;-143.48;36.13;118439.88;5117399;28;20351;-68
2023/02/26 11:04:13;;;;;;;4.03;1.15;;;;;;;-143.48;35.22;118439.88;5126654;28;20040;-68
2023/02/26 11:06:46;;;;;;;3.92;1.10;;;;;;;-143.48;35.88;118439.88;5094533;28;20036;-68
2023/02/26 11:09:22;;;;;;;6.13;0.85;;;;;;;-143.48;35.60;118439.88;5116031;28;20027;-67
2023/02/26 11:11:52;;;;;;;2.58;1.15;;;;;;;-143.48;36.46;118439.88;5115790;28;20028;-68
2023/02/26 11:14:19;;;;;;;4.55;1.13;;;;;;;-143.48;35.78;118439.88;5115944;28;20389;-67
2023/02/26 11:17:00;;;;;;;6.25;0.95;;;;;;;-143.48;37.73;118439.88;5096624;28;20058;-68
2023/02/26 11:19:34;;;;;;;4.80;1.10;;;;;;;-143.48;37.14;118439.88;5115951;28;20054;-68
2023/02/26 11:22:03;;;;;;;4.05;0.88;;;;;;;-143.48;36.84;118439.88;5099022;28;20022;-68